TEB weather

Teterboro Airport
Teterboro, New Jersey, United States

Public forecast

Using degrees Fahrenheit for public forecast. Weather courtesy of forecast.io.

METAR (pilot weather report)

Retrieved 2019/04/22 20:51 UTC (59 minutes ago):

KTEB 222051Z 30005KT 10SM -RA OVC016 16/13 A2997 RMK AO2 SLP147 P0005 60023 T01610128 56011

TAF (pilot weather forecast)

Retrieved 2019/04/22 18:34 UTC (3 hours ago):

TAF KTEB 221731Z 2218/2324 35010KT P6SM VCSH SCT025 BKN040 TEMPO 2218/2222 -SHRA BKN025 FM222200 34005KT P6SM VCSH SCT025 BKN040 FM230300 33004KT P6SM SCT025 SCT030 BKN080 FM231600 23004KT P6SM SCT035 SCT250 FM231900 18008KT P6SM SCT250